Anaktuvuk Pass, Alaska
Current Conditions -  °F | °C
As of 9:16 PM on Friday 24 Oct 2014 (Local Time) from PAKP Reporting Station
Clear Clear  
Wind Chill: -3°   Ceiling: Unl
Heat Index: 10°   Visibility: 10mi
Dew Point:   Wind: 10mph
Humidity: 73%   Direction: 180°S
Pressure: 29.74"   Gusts: NA
Location:  68.14°N, 151.74°W
Report Text: PAKP 250516Z AUTO 18009KT 10SM CLR M12/M16 A2974 RMK AO1
Loading
Personal Weather Stations






























Interactive Weather Map
Tropical Storm Tracking
New forecast layout! Learn more

10-Day Weather Forecast

Advertisements
Track Severe Weather on mobile